Brocket, North Dakota
Current Conditions -  °F | °C
As of 3:35 PM on Monday 24 Nov 2014 (Local Time) from KDVL Reporting Station
Clear Clear  
Wind Chill:   Ceiling: Unl
Heat Index: 19°   Visibility: 10mi
Dew Point: -2°   Wind: 15mph
Humidity: 39%   Direction: 330°NNW
Pressure: 29.9"   Gusts: NA
Location:  48.21°N, 98.36°W
Report Text: KDVL 242135Z AUTO 33013KT 10SM CLR M07/M19 A2990 RMK AO1
Loading
Personal Weather Stations






























Interactive Weather Map New forecast layout! Learn more

10-Day Weather Forecast

Advertisements
Track Severe Weather on mobile